sensor_id;sensor_type;location;lat;lon;timestamp;temperature;humidity
44823;DHT22;51097;51.984;5.650;2023-04-06T00:01:38;7.80;99.90
44823;DHT22;51097;51.984;5.650;2023-04-06T00:04:03;7.90;99.90
44823;DHT22;51097;51.984;5.650;2023-04-06T00:06:29;7.90;99.90
44823;DHT22;51097;51.984;5.650;2023-04-06T00:08:55;7.90;99.90
44823;DHT22;51097;51.984;5.650;2023-04-06T00:11:21;7.90;99.90
44823;DHT22;51097;51.984;5.650;2023-04-06T00:13:46;7.90;99.90
44823;DHT22;51097;51.984;5.650;2023-04-06T00:16:12;8.00;99.90
44823;DHT22;51097;51.984;5.650;2023-04-06T00:18:38;8.00;99.90
44823;DHT22;51097;51.984;5.650;2023-04-06T00:21:03;8.00;99.90
44823;DHT22;51097;51.984;5.650;2023-04-06T00:23:29;7.90;99.90
44823;DHT22;51097;51.984;5.650;2023-04-06T00:25:55;8.00;99.90
44823;DHT22;51097;51.984;5.650;2023-04-06T00:28:20;8.00;99.90
44823;DHT22;51097;51.984;5.650;2023-04-06T00:30:50;8.00;99.90
44823;DHT22;51097;51.984;5.650;2023-04-06T00:33:18;8.00;99.90
44823;DHT22;51097;51.984;5.650;2023-04-06T00:35:44;8.00;99.90
44823;DHT22;51097;51.984;5.650;2023-04-06T00:38:09;7.90;99.90
44823;DHT22;51097;51.984;5.650;2023-04-06T00:40:35;7.90;99.90
44823;DHT22;51097;51.984;5.650;2023-04-06T00:43:01;7.90;99.90
44823;DHT22;51097;51.984;5.650;2023-04-06T00:45:26;7.90;99.90
44823;DHT22;51097;51.984;5.650;2023-04-06T00:47:52;7.90;99.90
44823;DHT22;51097;51.984;5.650;2023-04-06T00:50:17;7.90;99.90
44823;DHT22;51097;51.984;5.650;2023-04-06T00:52:43;7.90;99.90
44823;DHT22;51097;51.984;5.650;2023-04-06T00:55:09;7.90;99.90
44823;DHT22;51097;51.984;5.650;2023-04-06T00:57:35;7.90;99.80
44823;DHT22;51097;51.984;5.650;2023-04-06T01:00:01;7.90;99.90
44823;DHT22;51097;51.984;5.650;2023-04-06T01:02:26;8.00;99.90
44823;DHT22;51097;51.984;5.650;2023-04-06T01:04:52;7.90;99.90
44823;DHT22;51097;51.984;5.650;2023-04-06T01:07:19;7.90;99.90
44823;DHT22;51097;51.984;5.650;2023-04-06T01:09:45;7.80;99.90
44823;DHT22;51097;51.984;5.650;2023-04-06T01:12:10;7.70;99.90
44823;DHT22;51097;51.984;5.650;2023-04-06T01:14:36;7.70;99.90
44823;DHT22;51097;51.984;5.650;2023-04-06T01:17:01;7.60;99.90
44823;DHT22;51097;51.984;5.650;2023-04-06T01:19:28;7.50;99.90
44823;DHT22;51097;51.984;5.650;2023-04-06T01:21:53;7.50;99.90
44823;DHT22;51097;51.984;5.650;2023-04-06T01:24:19;7.50;99.90
44823;DHT22;51097;51.984;5.650;2023-04-06T01:26:45;7.40;99.90
44823;DHT22;51097;51.984;5.650;2023-04-06T01:29:11;7.30;99.90
44823;DHT22;51097;51.984;5.650;2023-04-06T01:31:38;7.30;99.90
44823;DHT22;51097;51.984;5.650;2023-04-06T01:34:04;7.20;99.90
44823;DHT22;51097;51.984;5.650;2023-04-06T01:36:30;7.00;99.90
44823;DHT22;51097;51.984;5.650;2023-04-06T01:38:56;6.90;99.90
44823;DHT22;51097;51.984;5.650;2023-04-06T01:41:22;6.90;99.90
44823;DHT22;51097;51.984;5.650;2023-04-06T01:43:48;6.90;99.90
44823;DHT22;51097;51.984;5.650;2023-04-06T01:46:14;6.80;99.90
44823;DHT22;51097;51.984;5.650;2023-04-06T01:48:40;6.70;99.90
44823;DHT22;51097;51.984;5.650;2023-04-06T01:51:05;6.60;99.90
44823;DHT22;51097;51.984;5.650;2023-04-06T01:53:31;6.50;99.90
44823;DHT22;51097;51.984;5.650;2023-04-06T01:55:56;6.50;99.90
44823;DHT22;51097;51.984;5.650;2023-04-06T01:58:22;6.50;99.90
44823;DHT22;51097;51.984;5.650;2023-04-06T02:00:47;6.50;99.90
44823;DHT22;51097;51.984;5.650;2023-04-06T02:03:13;6.40;99.90
44823;DHT22;51097;51.984;5.650;2023-04-06T02:05:40;6.40;99.90
44823;DHT22;51097;51.984;5.650;2023-04-06T02:08:06;6.40;99.90
44823;DHT22;51097;51.984;5.650;2023-04-06T02:10:32;6.30;99.90
44823;DHT22;51097;51.984;5.650;2023-04-06T02:12:58;6.40;99.90
44823;DHT22;51097;51.984;5.650;2023-04-06T02:15:24;6.40;99.90
44823;DHT22;51097;51.984;5.650;2023-04-06T02:17:51;6.50;99.90
44823;DHT22;51097;51.984;5.650;2023-04-06T02:20:16;6.50;99.90
44823;DHT22;51097;51.984;5.650;2023-04-06T02:22:42;6.50;99.90
44823;DHT22;51097;51.984;5.650;2023-04-06T02:25:08;6.70;99.90
44823;DHT22;51097;51.984;5.650;2023-04-06T02:27:34;6.80;99.90
44823;DHT22;51097;51.984;5.650;2023-04-06T02:29:59;6.90;99.90
44823;DHT22;51097;51.984;5.650;2023-04-06T02:32:25;7.00;99.90
44823;DHT22;51097;51.984;5.650;2023-04-06T02:34:51;7.10;99.90
44823;DHT22;51097;51.984;5.650;2023-04-06T02:37:16;7.10;99.90
44823;DHT22;51097;51.984;5.650;2023-04-06T02:39:42;7.30;99.90
44823;DHT22;51097;51.984;5.650;2023-04-06T02:42:07;7.40;99.90
44823;DHT22;51097;51.984;5.650;2023-04-06T02:44:34;7.50;99.90
44823;DHT22;51097;51.984;5.650;2023-04-06T02:46:59;7.60;99.90
44823;DHT22;51097;51.984;5.650;2023-04-06T02:49:25;7.80;99.90
44823;DHT22;51097;51.984;5.650;2023-04-06T02:51:50;7.80;99.90
44823;DHT22;51097;51.984;5.650;2023-04-06T02:54:16;7.80;99.90
44823;DHT22;51097;51.984;5.650;2023-04-06T02:56:41;7.90;99.90
44823;DHT22;51097;51.984;5.650;2023-04-06T02:59:07;7.90;99.90
44823;DHT22;51097;51.984;5.650;2023-04-06T03:01:32;7.90;99.90
44823;DHT22;51097;51.984;5.650;2023-04-06T03:03:58;7.90;99.90
44823;DHT22;51097;51.984;5.650;2023-04-06T03:06:23;8.10;99.90
44823;DHT22;51097;51.984;5.650;2023-04-06T03:08:49;8.10;99.90
44823;DHT22;51097;51.984;5.650;2023-04-06T03:11:15;8.20;99.90
44823;DHT22;51097;51.984;5.650;2023-04-06T03:13:41;8.20;99.90
44823;DHT22;51097;51.984;5.650;2023-04-06T03:16:06;8.20;99.90
44823;DHT22;51097;51.984;5.650;2023-04-06T03:18:32;8.30;99.90
44823;DHT22;51097;51.984;5.650;2023-04-06T03:20:58;8.30;99.90
44823;DHT22;51097;51.984;5.650;2023-04-06T03:23:25;8.30;99.90
44823;DHT22;51097;51.984;5.650;2023-04-06T03:25:51;8.30;99.90
44823;DHT22;51097;51.984;5.650;2023-04-06T03:28:16;8.50;99.90
44823;DHT22;51097;51.984;5.650;2023-04-06T03:30:42;8.60;99.90
44823;DHT22;51097;51.984;5.650;2023-04-06T03:33:08;8.50;99.90
44823;DHT22;51097;51.984;5.650;2023-04-06T03:35:33;8.60;99.90
44823;DHT22;51097;51.984;5.650;2023-04-06T03:37:59;8.60;99.90
44823;DHT22;51097;51.984;5.650;2023-04-06T03:40:25;8.60;99.90
44823;DHT22;51097;51.984;5.650;2023-04-06T03:42:50;8.50;99.90
44823;DHT22;51097;51.984;5.650;2023-04-06T03:45:16;8.60;99.90
44823;DHT22;51097;51.984;5.650;2023-04-06T03:47:42;8.60;99.50
44823;DHT22;51097;51.984;5.650;2023-04-06T03:50:07;8.60;99.60
44823;DHT22;51097;51.984;5.650;2023-04-06T03:52:35;8.60;99.20
44823;DHT22;51097;51.984;5.650;2023-04-06T03:55:00;8.70;99.30
44823;DHT22;51097;51.984;5.650;2023-04-06T03:57:26;8.70;99.10
44823;DHT22;51097;51.984;5.650;2023-04-06T03:59:51;8.70;99.10
44823;DHT22;51097;51.984;5.650;2023-04-06T04:02:17;8.60;99.00
44823;DHT22;51097;51.984;5.650;2023-04-06T04:04:42;8.80;99.00
44823;DHT22;51097;51.984;5.650;2023-04-06T04:07:08;8.80;99.20
44823;DHT22;51097;51.984;5.650;2023-04-06T04:09:33;8.80;98.80
44823;DHT22;51097;51.984;5.650;2023-04-06T04:11:59;8.80;99.00
44823;DHT22;51097;51.984;5.650;2023-04-06T04:14:25;8.80;98.70
44823;DHT22;51097;51.984;5.650;2023-04-06T04:16:51;8.80;98.70
44823;DHT22;51097;51.984;5.650;2023-04-06T04:19:16;8.90;98.80
44823;DHT22;51097;51.984;5.650;2023-04-06T04:21:46;8.90;98.80
44823;DHT22;51097;51.984;5.650;2023-04-06T04:24:12;8.90;98.80
44823;DHT22;51097;51.984;5.650;2023-04-06T04:26:38;9.00;98.80
44823;DHT22;51097;51.984;5.650;2023-04-06T04:29:04;9.10;98.70
44823;DHT22;51097;51.984;5.650;2023-04-06T04:31:30;9.00;98.70
44823;DHT22;51097;51.984;5.650;2023-04-06T04:33:56;8.90;98.60
44823;DHT22;51097;51.984;5.650;2023-04-06T04:36:21;8.90;98.90
44823;DHT22;51097;51.984;5.650;2023-04-06T04:38:48;9.00;98.90
44823;DHT22;51097;51.984;5.650;2023-04-06T04:41:14;9.00;98.70
44823;DHT22;51097;51.984;5.650;2023-04-06T04:43:39;9.00;98.90
44823;DHT22;51097;51.984;5.650;2023-04-06T04:46:05;9.00;98.90
44823;DHT22;51097;51.984;5.650;2023-04-06T04:48:30;8.90;98.90
44823;DHT22;51097;51.984;5.650;2023-04-06T04:50:56;9.00;98.90
44823;DHT22;51097;51.984;5.650;2023-04-06T04:53:21;9.00;98.70
44823;DHT22;51097;51.984;5.650;2023-04-06T04:55:47;9.00;98.70
44823;DHT22;51097;51.984;5.650;2023-04-06T04:58:13;8.90;99.10
44823;DHT22;51097;51.984;5.650;2023-04-06T05:00:45;8.80;99.00
44823;DHT22;51097;51.984;5.650;2023-04-06T05:03:21;8.80;99.00
44823;DHT22;51097;51.984;5.650;2023-04-06T05:05:47;8.90;99.10
44823;DHT22;51097;51.984;5.650;2023-04-06T05:08:13;8.80;99.20
44823;DHT22;51097;51.984;5.650;2023-04-06T05:10:38;8.80;99.20
44823;DHT22;51097;51.984;5.650;2023-04-06T05:13:04;8.80;99.40
44823;DHT22;51097;51.984;5.650;2023-04-06T05:15:30;8.80;99.40
44823;DHT22;51097;51.984;5.650;2023-04-06T05:17:55;8.70;99.30
44823;DHT22;51097;51.984;5.650;2023-04-06T05:20:21;8.80;99.40
44823;DHT22;51097;51.984;5.650;2023-04-06T05:22:47;8.80;99.40
44823;DHT22;51097;51.984;5.650;2023-04-06T05:25:13;8.70;99.30
44823;DHT22;51097;51.984;5.650;2023-04-06T05:27:39;8.70;99.20
44823;DHT22;51097;51.984;5.650;2023-04-06T05:30:06;8.60;99.50
44823;DHT22;51097;51.984;5.650;2023-04-06T05:32:31;8.60;99.60
44823;DHT22;51097;51.984;5.650;2023-04-06T05:34:59;8.70;99.60
44823;DHT22;51097;51.984;5.650;2023-04-06T05:37:25;8.60;99.80
44823;DHT22;51097;51.984;5.650;2023-04-06T05:39:51;8.70;99.60
44823;DHT22;51097;51.984;5.650;2023-04-06T05:42:16;8.70;99.90
44823;DHT22;51097;51.984;5.650;2023-04-06T05:44:42;8.70;99.80
44823;DHT22;51097;51.984;5.650;2023-04-06T05:47:08;8.80;99.60
44823;DHT22;51097;51.984;5.650;2023-04-06T05:49:33;8.70;99.80
44823;DHT22;51097;51.984;5.650;2023-04-06T05:52:00;8.80;99.70
44823;DHT22;51097;51.984;5.650;2023-04-06T05:54:25;8.90;99.70
44823;DHT22;51097;51.984;5.650;2023-04-06T05:56:51;9.00;99.60
44823;DHT22;51097;51.984;5.650;2023-04-06T05:59:16;9.00;99.70
44823;DHT22;51097;51.984;5.650;2023-04-06T06:01:44;9.00;99.60
44823;DHT22;51097;51.984;5.650;2023-04-06T06:04:10;8.90;99.50
44823;DHT22;51097;51.984;5.650;2023-04-06T06:06:35;9.30;99.70
44823;DHT22;51097;51.984;5.650;2023-04-06T06:09:02;9.20;99.70
44823;DHT22;51097;51.984;5.650;2023-04-06T06:11:29;9.30;99.80
44823;DHT22;51097;51.984;5.650;2023-04-06T06:13:55;9.30;99.50
44823;DHT22;51097;51.984;5.650;2023-04-06T06:16:21;9.50;99.60
44823;DHT22;51097;51.984;5.650;2023-04-06T06:18:47;9.50;99.30
44823;DHT22;51097;51.984;5.650;2023-04-06T06:21:12;9.60;99.40
44823;DHT22;51097;51.984;5.650;2023-04-06T06:23:38;9.70;99.20
44823;DHT22;51097;51.984;5.650;2023-04-06T06:26:04;9.60;99.40
44823;DHT22;51097;51.984;5.650;2023-04-06T06:28:30;9.70;99.40
44823;DHT22;51097;51.984;5.650;2023-04-06T06:30:56;9.70;99.40
44823;DHT22;51097;51.984;5.650;2023-04-06T06:33:22;9.70;99.50
44823;DHT22;51097;51.984;5.650;2023-04-06T06:35:48;9.70;99.70
44823;DHT22;51097;51.984;5.650;2023-04-06T06:38:14;9.90;99.60
44823;DHT22;51097;51.984;5.650;2023-04-06T06:40:40;9.90;99.60
44823;DHT22;51097;51.984;5.650;2023-04-06T06:43:06;9.90;99.80
44823;DHT22;51097;51.984;5.650;2023-04-06T06:45:31;9.90;99.90
44823;DHT22;51097;51.984;5.650;2023-04-06T06:47:57;10.00;99.80
44823;DHT22;51097;51.984;5.650;2023-04-06T06:50:22;10.00;99.80
44823;DHT22;51097;51.984;5.650;2023-04-06T06:52:48;10.00;99.90
44823;DHT22;51097;51.984;5.650;2023-04-06T06:55:13;9.90;99.90
44823;DHT22;51097;51.984;5.650;2023-04-06T06:57:40;10.10;99.90
44823;DHT22;51097;51.984;5.650;2023-04-06T07:00:08;10.00;99.90
44823;DHT22;51097;51.984;5.650;2023-04-06T07:02:34;10.10;99.90
44823;DHT22;51097;51.984;5.650;2023-04-06T07:05:01;10.20;99.90
44823;DHT22;51097;51.984;5.650;2023-04-06T07:07:27;10.30;99.90
44823;DHT22;51097;51.984;5.650;2023-04-06T07:09:52;10.40;99.90
44823;DHT22;51097;51.984;5.650;2023-04-06T07:12:18;10.50;99.90
44823;DHT22;51097;51.984;5.650;2023-04-06T07:14:43;10.60;99.90
44823;DHT22;51097;51.984;5.650;2023-04-06T07:17:09;10.70;99.90
44823;DHT22;51097;51.984;5.650;2023-04-06T07:19:35;10.80;99.90
44823;DHT22;51097;51.984;5.650;2023-04-06T07:22:01;10.80;99.90
44823;DHT22;51097;51.984;5.650;2023-04-06T07:24:27;10.80;99.90
44823;DHT22;51097;51.984;5.650;2023-04-06T07:26:53;10.90;99.90
44823;DHT22;51097;51.984;5.650;2023-04-06T07:29:18;11.00;99.90
44823;DHT22;51097;51.984;5.650;2023-04-06T07:31:44;11.10;99.90
44823;DHT22;51097;51.984;5.650;2023-04-06T07:34:10;11.30;99.90
44823;DHT22;51097;51.984;5.650;2023-04-06T07:36:35;11.40;99.90
44823;DHT22;51097;51.984;5.650;2023-04-06T07:39:01;11.40;99.90
44823;DHT22;51097;51.984;5.650;2023-04-06T07:41:27;11.40;99.90
44823;DHT22;51097;51.984;5.650;2023-04-06T07:43:52;11.40;99.90
44823;DHT22;51097;51.984;5.650;2023-04-06T07:46:18;11.50;99.90
44823;DHT22;51097;51.984;5.650;2023-04-06T07:48:43;11.60;99.90
44823;DHT22;51097;51.984;5.650;2023-04-06T07:51:09;11.50;99.60
44823;DHT22;51097;51.984;5.650;2023-04-06T07:53:39;11.60;99.60
44823;DHT22;51097;51.984;5.650;2023-04-06T07:56:05;11.50;99.30
44823;DHT22;51097;51.984;5.650;2023-04-06T07:58:30;11.50;99.40
44823;DHT22;51097;51.984;5.650;2023-04-06T08:00:56;11.50;99.60
44823;DHT22;51097;51.984;5.650;2023-04-06T08:03:23;11.50;99.40
44823;DHT22;51097;51.984;5.650;2023-04-06T08:05:51;11.50;99.50
44823;DHT22;51097;51.984;5.650;2023-04-06T08:08:17;11.50;99.60
44823;DHT22;51097;51.984;5.650;2023-04-06T08:10:43;11.40;99.70
44823;DHT22;51097;51.984;5.650;2023-04-06T08:13:09;11.50;99.80
44823;DHT22;51097;51.984;5.650;2023-04-06T08:15:34;11.50;99.80
44823;DHT22;51097;51.984;5.650;2023-04-06T08:18:00;11.40;99.80
44823;DHT22;51097;51.984;5.650;2023-04-06T08:20:26;11.40;99.80
44823;DHT22;51097;51.984;5.650;2023-04-06T08:22:51;11.50;99.70
44823;DHT22;51097;51.984;5.650;2023-04-06T08:25:17;11.60;99.90
44823;DHT22;51097;51.984;5.650;2023-04-06T08:27:42;11.60;99.80
44823;DHT22;51097;51.984;5.650;2023-04-06T08:30:08;11.80;99.90
44823;DHT22;51097;51.984;5.650;2023-04-06T08:32:34;11.80;99.90
44823;DHT22;51097;51.984;5.650;2023-04-06T08:35:00;12.00;99.90
44823;DHT22;51097;51.984;5.650;2023-04-06T08:37:25;12.10;99.80
44823;DHT22;51097;51.984;5.650;2023-04-06T08:39:51;12.10;99.80
44823;DHT22;51097;51.984;5.650;2023-04-06T08:42:20;12.30;99.90
44823;DHT22;51097;51.984;5.650;2023-04-06T08:44:47;12.30;99.80
44823;DHT22;51097;51.984;5.650;2023-04-06T08:47:13;12.50;99.50
44823;DHT22;51097;51.984;5.650;2023-04-06T08:49:40;12.40;98.90
44823;DHT22;51097;51.984;5.650;2023-04-06T08:52:07;12.40;99.20
44823;DHT22;51097;51.984;5.650;2023-04-06T08:54:36;12.60;99.20
44823;DHT22;51097;51.984;5.650;2023-04-06T08:57:02;12.70;98.90
44823;DHT22;51097;51.984;5.650;2023-04-06T08:59:28;12.80;98.90
44823;DHT22;51097;51.984;5.650;2023-04-06T09:01:55;12.90;99.10
44823;DHT22;51097;51.984;5.650;2023-04-06T09:04:21;13.10;99.10
44823;DHT22;51097;51.984;5.650;2023-04-06T09:06:46;13.30;99.10
44823;DHT22;51097;51.984;5.650;2023-04-06T09:09:12;13.40;98.80
44823;DHT22;51097;51.984;5.650;2023-04-06T09:11:49;13.50;98.50
44823;DHT22;51097;51.984;5.650;2023-04-06T09:14:16;13.60;98.40
44823;DHT22;51097;51.984;5.650;2023-04-06T09:16:43;13.60;98.40
44823;DHT22;51097;51.984;5.650;2023-04-06T09:19:09;13.70;98.90
44823;DHT22;51097;51.984;5.650;2023-04-06T09:21:35;13.80;97.80
44823;DHT22;51097;51.984;5.650;2023-04-06T09:24:02;13.90;97.80
44823;DHT22;51097;51.984;5.650;2023-04-06T09:26:28;14.00;97.40
44823;DHT22;51097;51.984;5.650;2023-04-06T09:28:56;13.90;97.70
44823;DHT22;51097;51.984;5.650;2023-04-06T09:31:27;14.10;97.20
44823;DHT22;51097;51.984;5.650;2023-04-06T09:33:53;14.10;97.40
44823;DHT22;51097;51.984;5.650;2023-04-06T09:36:19;14.20;97.70
44823;DHT22;51097;51.984;5.650;2023-04-06T09:38:56;14.40;97.00
44823;DHT22;51097;51.984;5.650;2023-04-06T09:41:32;14.40;96.80
44823;DHT22;51097;51.984;5.650;2023-04-06T09:44:09;14.40;96.90
44823;DHT22;51097;51.984;5.650;2023-04-06T09:46:40;14.20;97.10
44823;DHT22;51097;51.984;5.650;2023-04-06T09:49:06;14.30;97.00
44823;DHT22;51097;51.984;5.650;2023-04-06T09:54:08;14.40;97.50
44823;DHT22;51097;51.984;5.650;2023-04-06T09:56:47;14.40;97.20
44823;DHT22;51097;51.984;5.650;2023-04-06T10:02:20;14.30;97.60
44823;DHT22;51097;51.984;5.650;2023-04-06T10:05:04;14.30;97.80
44823;DHT22;51097;51.984;5.650;2023-04-06T10:07:31;14.60;97.30
44823;DHT22;51097;51.984;5.650;2023-04-06T10:09:59;14.60;96.80
44823;DHT22;51097;51.984;5.650;2023-04-06T10:12:25;14.80;96.60
44823;DHT22;51097;51.984;5.650;2023-04-06T10:14:51;14.40;96.30
44823;DHT22;51097;51.984;5.650;2023-04-06T10:17:17;14.50;96.90
44823;DHT22;51097;51.984;5.650;2023-04-06T10:22:22;14.60;97.20
44823;DHT22;51097;51.984;5.650;2023-04-06T10:24:49;14.60;97.00
44823;DHT22;51097;51.984;5.650;2023-04-06T10:27:15;14.70;97.30
44823;DHT22;51097;51.984;5.650;2023-04-06T10:29:45;14.80;97.20
44823;DHT22;51097;51.984;5.650;2023-04-06T10:32:10;14.90;97.50
44823;DHT22;51097;51.984;5.650;2023-04-06T10:34:36;15.00;97.70
44823;DHT22;51097;51.984;5.650;2023-04-06T10:37:16;15.00;97.70
44823;DHT22;51097;51.984;5.650;2023-04-06T10:39:52;15.10;98.10
44823;DHT22;51097;51.984;5.650;2023-04-06T10:42:24;15.20;98.10
44823;DHT22;51097;51.984;5.650;2023-04-06T10:44:50;15.30;98.40
44823;DHT22;51097;51.984;5.650;2023-04-06T10:47:17;15.30;98.30
44823;DHT22;51097;51.984;5.650;2023-04-06T10:49:46;15.30;98.50
44823;DHT22;51097;51.984;5.650;2023-04-06T10:52:11;15.40;99.00
44823;DHT22;51097;51.984;5.650;2023-04-06T10:54:42;15.50;99.90
44823;DHT22;51097;51.984;5.650;2023-04-06T10:57:09;15.40;99.90
44823;DHT22;51097;51.984;5.650;2023-04-06T10:59:35;15.20;99.90
44823;DHT22;51097;51.984;5.650;2023-04-06T11:02:00;15.10;99.90
44823;DHT22;51097;51.984;5.650;2023-04-06T11:04:26;15.20;99.90
44823;DHT22;51097;51.984;5.650;2023-04-06T11:06:51;15.20;99.90
44823;DHT22;51097;51.984;5.650;2023-04-06T11:09:27;15.10;99.90
44823;DHT22;51097;51.984;5.650;2023-04-06T11:11:54;15.00;99.90
44823;DHT22;51097;51.984;5.650;2023-04-06T11:14:20;14.70;99.90
44823;DHT22;51097;51.984;5.650;2023-04-06T11:16:47;14.60;99.90
44823;DHT22;51097;51.984;5.650;2023-04-06T11:19:16;14.60;99.90
44823;DHT22;51097;51.984;5.650;2023-04-06T11:21:47;14.60;99.90
44823;DHT22;51097;51.984;5.650;2023-04-06T11:24:18;14.70;99.90
44823;DHT22;51097;51.984;5.650;2023-04-06T11:26:53;14.50;99.90
44823;DHT22;51097;51.984;5.650;2023-04-06T11:29:21;14.40;99.90
44823;DHT22;51097;51.984;5.650;2023-04-06T11:31:51;14.20;99.90
44823;DHT22;51097;51.984;5.650;2023-04-06T11:34:19;14.00;99.90
44823;DHT22;51097;51.984;5.650;2023-04-06T11:36:46;13.80;99.90
44823;DHT22;51097;51.984;5.650;2023-04-06T11:39:13;13.60;99.90
44823;DHT22;51097;51.984;5.650;2023-04-06T11:41:46;13.60;99.90
44823;DHT22;51097;51.984;5.650;2023-04-06T11:44:12;13.40;99.90
44823;DHT22;51097;51.984;5.650;2023-04-06T11:46:37;13.20;99.90
44823;DHT22;51097;51.984;5.650;2023-04-06T11:49:03;13.30;99.90
44823;DHT22;51097;51.984;5.650;2023-04-06T11:51:29;13.30;99.90
44823;DHT22;51097;51.984;5.650;2023-04-06T11:53:55;13.30;99.90
44823;DHT22;51097;51.984;5.650;2023-04-06T11:56:28;13.20;99.90
44823;DHT22;51097;51.984;5.650;2023-04-06T11:58:56;13.00;99.90
44823;DHT22;51097;51.984;5.650;2023-04-06T12:01:22;13.00;99.90
44823;DHT22;51097;51.984;5.650;2023-04-06T12:03:48;13.10;99.90
44823;DHT22;51097;51.984;5.650;2023-04-06T12:06:14;12.90;99.90
44823;DHT22;51097;51.984;5.650;2023-04-06T12:08:40;12.90;99.90
44823;DHT22;51097;51.984;5.650;2023-04-06T12:11:06;12.90;99.90
44823;DHT22;51097;51.984;5.650;2023-04-06T12:13:32;12.80;99.90
44823;DHT22;51097;51.984;5.650;2023-04-06T12:15:57;12.90;99.90
44823;DHT22;51097;51.984;5.650;2023-04-06T12:18:23;12.80;99.90
44823;DHT22;51097;51.984;5.650;2023-04-06T12:20:48;12.60;99.90
44823;DHT22;51097;51.984;5.650;2023-04-06T12:23:14;12.50;99.90
44823;DHT22;51097;51.984;5.650;2023-04-06T12:25:41;12.40;99.90
44823;DHT22;51097;51.984;5.650;2023-04-06T12:28:07;12.30;99.90
44823;DHT22;51097;51.984;5.650;2023-04-06T12:30:34;12.30;99.90
44823;DHT22;51097;51.984;5.650;2023-04-06T12:33:00;12.30;99.90
44823;DHT22;51097;51.984;5.650;2023-04-06T12:35:26;12.20;99.90
44823;DHT22;51097;51.984;5.650;2023-04-06T12:37:52;12.20;99.90
44823;DHT22;51097;51.984;5.650;2023-04-06T12:40:18;12.30;99.90
44823;DHT22;51097;51.984;5.650;2023-04-06T12:42:43;12.60;99.90
44823;DHT22;51097;51.984;5.650;2023-04-06T12:45:11;12.60;99.90
44823;DHT22;51097;51.984;5.650;2023-04-06T12:47:37;12.60;99.90
44823;DHT22;51097;51.984;5.650;2023-04-06T12:50:04;12.60;99.90
44823;DHT22;51097;51.984;5.650;2023-04-06T12:52:31;12.50;99.90
44823;DHT22;51097;51.984;5.650;2023-04-06T12:54:57;12.60;99.90
44823;DHT22;51097;51.984;5.650;2023-04-06T12:57:24;12.70;99.90
44823;DHT22;51097;51.984;5.650;2023-04-06T12:59:50;12.70;99.90
44823;DHT22;51097;51.984;5.650;2023-04-06T13:02:16;12.50;99.90
44823;DHT22;51097;51.984;5.650;2023-04-06T13:04:42;12.50;99.90
44823;DHT22;51097;51.984;5.650;2023-04-06T13:07:08;12.40;99.90
44823;DHT22;51097;51.984;5.650;2023-04-06T13:09:33;12.30;99.90
44823;DHT22;51097;51.984;5.650;2023-04-06T13:11:59;12.30;99.90
44823;DHT22;51097;51.984;5.650;2023-04-06T13:14:24;12.30;99.90
44823;DHT22;51097;51.984;5.650;2023-04-06T13:16:50;12.40;99.90
44823;DHT22;51097;51.984;5.650;2023-04-06T13:19:16;12.40;99.90
44823;DHT22;51097;51.984;5.650;2023-04-06T13:21:43;12.50;99.90
44823;DHT22;51097;51.984;5.650;2023-04-06T13:24:09;12.60;99.90
44823;DHT22;51097;51.984;5.650;2023-04-06T13:26:35;12.50;99.90
44823;DHT22;51097;51.984;5.650;2023-04-06T13:29:01;12.50;99.90
44823;DHT22;51097;51.984;5.650;2023-04-06T13:31:28;12.50;99.90
44823;DHT22;51097;51.984;5.650;2023-04-06T13:33:53;12.40;99.90
44823;DHT22;51097;51.984;5.650;2023-04-06T13:36:19;12.30;99.90
44823;DHT22;51097;51.984;5.650;2023-04-06T13:38:45;12.30;99.90
44823;DHT22;51097;51.984;5.650;2023-04-06T13:41:20;12.20;99.90
44823;DHT22;51097;51.984;5.650;2023-04-06T13:43:46;12.20;99.90
44823;DHT22;51097;51.984;5.650;2023-04-06T13:46:12;12.10;99.90
44823;DHT22;51097;51.984;5.650;2023-04-06T13:48:38;12.10;99.90
44823;DHT22;51097;51.984;5.650;2023-04-06T13:51:10;12.10;99.90
44823;DHT22;51097;51.984;5.650;2023-04-06T13:53:36;12.10;99.90
44823;DHT22;51097;51.984;5.650;2023-04-06T13:56:02;12.00;99.90
44823;DHT22;51097;51.984;5.650;2023-04-06T13:58:27;12.10;99.90
44823;DHT22;51097;51.984;5.650;2023-04-06T14:00:53;12.00;99.90
44823;DHT22;51097;51.984;5.650;2023-04-06T14:03:19;12.10;99.90
44823;DHT22;51097;51.984;5.650;2023-04-06T14:05:45;12.20;99.90
44823;DHT22;51097;51.984;5.650;2023-04-06T14:08:10;12.20;99.90
44823;DHT22;51097;51.984;5.650;2023-04-06T14:10:40;12.30;99.90
44823;DHT22;51097;51.984;5.650;2023-04-06T14:13:06;12.30;99.90
44823;DHT22;51097;51.984;5.650;2023-04-06T14:15:32;12.30;99.90
44823;DHT22;51097;51.984;5.650;2023-04-06T14:17:57;12.10;99.90
44823;DHT22;51097;51.984;5.650;2023-04-06T14:20:23;12.30;99.90
44823;DHT22;51097;51.984;5.650;2023-04-06T14:22:48;12.20;99.90
44823;DHT22;51097;51.984;5.650;2023-04-06T14:25:16;12.20;99.90
44823;DHT22;51097;51.984;5.650;2023-04-06T14:27:43;12.20;99.90
44823;DHT22;51097;51.984;5.650;2023-04-06T14:30:09;12.10;99.90
44823;DHT22;51097;51.984;5.650;2023-04-06T14:32:35;12.00;99.90
44823;DHT22;51097;51.984;5.650;2023-04-06T14:35:01;12.00;99.90
44823;DHT22;51097;51.984;5.650;2023-04-06T14:37:27;12.10;99.90
44823;DHT22;51097;51.984;5.650;2023-04-06T14:39:53;12.10;99.90
44823;DHT22;51097;51.984;5.650;2023-04-06T14:42:18;12.10;99.90
44823;DHT22;51097;51.984;5.650;2023-04-06T14:44:44;12.10;99.90
44823;DHT22;51097;51.984;5.650;2023-04-06T14:47:11;12.00;99.90
44823;DHT22;51097;51.984;5.650;2023-04-06T14:49:37;12.20;99.90
44823;DHT22;51097;51.984;5.650;2023-04-06T14:52:02;12.30;99.90
44823;DHT22;51097;51.984;5.650;2023-04-06T14:54:28;12.30;99.90
44823;DHT22;51097;51.984;5.650;2023-04-06T14:56:54;12.30;99.90
44823;DHT22;51097;51.984;5.650;2023-04-06T14:59:20;12.20;99.90
44823;DHT22;51097;51.984;5.650;2023-04-06T15:01:46;12.30;99.90
44823;DHT22;51097;51.984;5.650;2023-04-06T15:04:11;12.30;99.90
44823;DHT22;51097;51.984;5.650;2023-04-06T15:06:37;12.20;99.90
44823;DHT22;51097;51.984;5.650;2023-04-06T15:09:02;12.20;99.90
44823;DHT22;51097;51.984;5.650;2023-04-06T15:11:28;12.20;99.90
44823;DHT22;51097;51.984;5.650;2023-04-06T15:13:53;12.20;99.90
44823;DHT22;51097;51.984;5.650;2023-04-06T15:16:19;12.20;99.90
44823;DHT22;51097;51.984;5.650;2023-04-06T15:18:45;12.10;99.90
44823;DHT22;51097;51.984;5.650;2023-04-06T15:21:10;12.20;99.90
44823;DHT22;51097;51.984;5.650;2023-04-06T15:23:36;12.10;99.90
44823;DHT22;51097;51.984;5.650;2023-04-06T15:26:01;12.10;99.90
44823;DHT22;51097;51.984;5.650;2023-04-06T15:28:27;11.90;99.90
44823;DHT22;51097;51.984;5.650;2023-04-06T15:30:54;11.90;99.90
44823;DHT22;51097;51.984;5.650;2023-04-06T15:33:21;11.90;99.90
44823;DHT22;51097;51.984;5.650;2023-04-06T15:35:47;11.90;99.90
44823;DHT22;51097;51.984;5.650;2023-04-06T15:38:13;11.80;99.90
44823;DHT22;51097;51.984;5.650;2023-04-06T15:40:43;11.80;99.90